Terminal Aerodrome Forecast
Issued by NWS

Home | Current Version | Previous Version | Text Only | Print | Product List | Glossary On
Versions: 1 2 3 4 5 6 7 8 9 10 11 12 13 14 15 16 17 18
000
FTUS43 KPAH 241000 AAA
TAFCGI
TAF AMD
KCGI 241000Z 2410/2506 35008KT 6SM BR SCT010 OVC035
      TEMPO 2410/2414 4SM -RA BR OVC010
     FM241600 28010KT P6SM SCT025 OVC040=

USA.gov is the U.S. government's official web portal to all federal, state and local government web resources and services.